Pagina principală
METAR-TAF:

METAR-TAF

Aeroporturi :

Pohnpei, Micronezia

Latitudine: 06-59N, longitudine: 158-12E, elevație: 2 m

Observații meteo curente

Raportul a fost făcut în urmă cu 49 de minute, la 01:50 UTC
Vânt 7 kt de la Est
Temperatură 31°C
Umiditate 75%
Presiune 1010 hPa
Vizibilitate: 24.1 km
Nori împrăștiați la o înălțime de 1800 picior, Cumulus congestus.
Nori fragmentați la o înălțime de 13000 picior
Total acoperit la o înălțime de 30000 picior

METAR: PTPN 020150Z 08007KT 15SM SCT018TCU BKN130 OVC300 31/26 A2982 RMK TCU E LAST

Ora: 13:39 (02:39 UTC)

Prognoză

Raportul a fost făcut în urmă cu 3 ore și 12 de minute, la 23:27 UTC
Prognoză valabilă de la 02 ora 00 UTC la 02 ora 24 UTC
Vânt 10 kt de la Est/Sud-est
Vizibilitate: 10 km
Nori împrăștiați la o înălțime de 1800 picior
Nori fragmentați la o înălțime de 12000 picior
averse în apropiere

TAF: PTPN 012327Z 0200/0224 11010KT P6SM VCSH SCT018 BKN120

Observații și prognoze meteo pentru peste 4.000 de aeroporturi (rapoarte METAR și TAF).

Stațiile disponibile sunt reprezentate pe hartă prin puncte galbene și roșii.

Țineți indicatorul mouse-ului pe punctul dorit pentru a vedea denumirea stației.

Apoi, faceți clic pentru a vedea observațiile și prognozele meteorologice.

Pentru a schimba harta: Pentru mărire, faceți clic pe butoanele verzi cu cruce neagră; pentru micșorare, pe butonul verde cu o liniuță; pentru hărți învecinate, pe săgețile verzi.


METAR-TAF: